createdAt,value
2023-04-25T00:01:28.741Z,100447.00
2023-04-25T00:06:31.239Z,100447.75
2023-04-25T00:11:33.089Z,100448.88
2023-04-25T00:16:36.152Z,100447.88
2023-04-25T00:21:41.726Z,100446.16
2023-04-25T00:26:43.642Z,100454.97
2023-04-25T00:31:45.533Z,100446.16
2023-04-25T00:36:47.377Z,100451.66
2023-04-25T00:41:49.650Z,100451.66
2023-04-25T00:46:51.959Z,100446.34
2023-04-25T00:51:53.858Z,100451.66
2023-04-25T00:56:56.039Z,100455.09
2023-04-25T01:01:58.379Z,100454.19
2023-04-25T01:07:00.733Z,100453.34
2023-04-25T01:12:03.963Z,100457.56
2023-04-25T01:17:06.527Z,100453.47
2023-04-25T01:22:08.420Z,100459.53
2023-04-25T01:27:11.728Z,100466.78
2023-04-25T01:32:15.151Z,100459.53
2023-04-25T01:37:18.604Z,100461.59
2023-04-25T01:42:20.626Z,100460.56
2023-04-25T01:47:22.457Z,100466.09
2023-04-25T01:52:24.273Z,100459.72
2023-04-25T01:57:26.207Z,100463.41
2023-04-25T02:02:28.166Z,100480.16
2023-04-25T02:07:30.098Z,100472.25
2023-04-25T02:12:33.133Z,100471.41
2023-04-25T02:17:35.077Z,100477.75
2023-04-25T02:22:36.916Z,100487.34
2023-04-25T02:27:38.758Z,100485.63
2023-04-25T02:32:41.563Z,100486.41
2023-04-25T02:37:43.604Z,100484.78
2023-04-25T02:42:47.015Z,100488.41
2023-04-25T02:47:48.851Z,100489.50
2023-04-25T02:52:50.864Z,100487.44
2023-04-25T02:57:52.768Z,100491.81
2023-04-25T03:02:54.781Z,100492.84
2023-04-25T03:07:56.692Z,100488.63
2023-04-25T03:12:58.545Z,100490.44
2023-04-25T03:18:00.359Z,100499.03
2023-04-25T03:23:02.235Z,100493.94
2023-04-25T03:28:04.018Z,100492.75
2023-04-25T03:33:05.879Z,100492.19
2023-04-25T03:38:07.753Z,100487.72
2023-04-25T03:43:09.646Z,100492.19
2023-04-25T03:48:11.600Z,100501.28
2023-04-25T03:53:13.331Z,100503.75
2023-04-25T03:58:15.190Z,100506.41
2023-04-25T04:03:17.152Z,100502.81
2023-04-25T04:08:19.136Z,100514.38
2023-04-25T04:13:20.932Z,100525.09
2023-04-25T04:18:23.052Z,100520.66
2023-04-25T04:23:24.901Z,100522.38
2023-04-25T04:28:27.927Z,100528.78
2023-04-25T04:33:29.760Z,100522.56
2023-04-25T04:38:31.702Z,100534.88
2023-04-25T04:43:34.617Z,100536.78
2023-04-25T04:48:36.485Z,100543.91
2023-04-25T04:53:38.512Z,100561.56
2023-04-25T04:58:40.474Z,100560.56
2023-04-25T05:03:42.380Z,100568.78
2023-04-25T05:08:44.216Z,100569.91
2023-04-25T05:13:46.909Z,100572.47
2023-04-25T05:18:49.059Z,100587.38
2023-04-25T05:23:51.281Z,100592.81
2023-04-25T05:28:53.305Z,100602.50
2023-04-25T05:33:55.178Z,100599.06
2023-04-25T05:38:57.127Z,100611.44
2023-04-25T05:43:59.013Z,100616.75
2023-04-25T05:49:00.986Z,100619.56
2023-04-25T05:54:02.840Z,100625.66
2023-04-25T05:59:04.677Z,100628.31
2023-04-25T06:04:06.669Z,100632.59
2023-04-25T06:09:08.646Z,100632.97
2023-04-25T06:14:10.473Z,100641.88
2023-04-25T06:19:12.312Z,100645.19
2023-04-25T06:24:14.084Z,100646.81
2023-04-25T06:29:15.854Z,100654.78
2023-04-25T06:34:17.608Z,100658.16
2023-04-25T06:39:21.360Z,100657.13
2023-04-25T06:44:25.224Z,100670.53
2023-04-25T06:49:26.952Z,100672.22
2023-04-25T06:54:30.657Z,100679.88
2023-04-25T06:59:32.536Z,100677.28
2023-04-25T07:04:34.423Z,100687.03
2023-04-25T07:09:36.521Z,100680.91
2023-04-25T07:14:38.970Z,100689.97
2023-04-25T07:19:41.565Z,100691.97
2023-04-25T07:24:43.345Z,100701.56
2023-04-25T07:29:45.376Z,100699.22
2023-04-25T07:34:47.150Z,100709.97
2023-04-25T07:39:48.943Z,100718.19
2023-04-25T07:44:52.815Z,100717.34
2023-04-25T07:49:54.633Z,100721.09
2023-04-25T07:54:56.469Z,100730.94
2023-04-25T07:59:58.260Z,100732.44
2023-04-25T08:05:00.223Z,100739.44
2023-04-25T08:10:02.249Z,100746.09
2023-04-25T08:15:06.742Z,100746.38
2023-04-25T08:20:08.775Z,100763.38
2023-04-25T08:25:10.560Z,100767.50
2023-04-25T08:30:12.733Z,100777.88
2023-04-25T08:35:14.575Z,100776.00
2023-04-25T08:40:17.251Z,100776.72
2023-04-25T08:45:19.370Z,100791.34
2023-04-25T08:50:23.537Z,100783.31
2023-04-25T08:55:26.812Z,100804.34
2023-04-25T09:00:29.180Z,100806.91
2023-04-25T09:05:31.634Z,100808.56
2023-04-25T09:10:33.833Z,100819.03
2023-04-25T09:15:52.689Z,100832.44
2023-04-25T09:21:13.027Z,100835.09
2023-04-25T09:26:18.272Z,100847.34
2023-04-25T09:31:27.336Z,100856.44
2023-04-25T09:36:31.133Z,100860.78
2023-04-25T09:41:33.930Z,100861.81
2023-04-25T09:46:37.822Z,100869.72
2023-04-25T09:51:39.689Z,100872.63
2023-04-25T09:56:42.179Z,100875.91
2023-04-25T10:01:44.689Z,100867.06
2023-04-25T10:06:50.458Z,100868.78
2023-04-25T10:11:53.200Z,100864.72
2023-04-25T10:16:56.800Z,100880.06
2023-04-25T10:22:12.977Z,100880.38
2023-04-25T10:27:15.611Z,100885.91
2023-04-25T10:32:17.596Z,100899.13
2023-04-25T10:37:20.665Z,100899.75
2023-04-25T10:42:22.550Z,100908.91
2023-04-25T10:47:37.100Z,100898.19
2023-04-25T10:52:41.908Z,100901.78
2023-04-25T10:57:47.437Z,100899.84
2023-04-25T11:02:53.642Z,100905.22
2023-04-25T11:08:07.202Z,100914.78
2023-04-25T11:13:09.894Z,100909.63
2023-04-25T11:18:11.714Z,100908.66
2023-04-25T11:23:13.601Z,100906.00
2023-04-25T11:28:23.137Z,100905.03
2023-04-25T11:33:26.380Z,100902.19
2023-04-25T11:38:29.406Z,100907.44
2023-04-25T11:43:31.573Z,100913.00
2023-04-25T11:48:39.349Z,100911.13
2023-04-25T11:53:45.955Z,100912.22
2023-04-25T11:58:58.685Z,100919.00
2023-04-25T12:04:15.176Z,100917.91
2023-04-25T12:09:20.052Z,100912.50
2023-04-25T12:14:29.961Z,100908.59
2023-04-25T12:19:37.068Z,100918.94
2023-04-25T12:24:39.487Z,100910.88
2023-04-25T12:29:52.476Z,100914.53
2023-04-25T12:34:54.351Z,100908.47
2023-04-25T12:39:56.561Z,100918.88
2023-04-25T12:44:58.396Z,100927.16
2023-04-25T12:50:00.248Z,100933.31
2023-04-25T12:55:02.046Z,100945.03
2023-04-25T13:00:05.624Z,100945.22
2023-04-25T13:05:07.774Z,100949.84
2023-04-25T13:10:09.880Z,100946.31
2023-04-25T13:15:12.584Z,100947.78
2023-04-25T13:20:16.140Z,100954.88
2023-04-25T13:25:17.964Z,100953.78
2023-04-25T13:30:19.830Z,100953.50
2023-04-25T13:35:21.781Z,100955.84
2023-04-25T13:40:25.446Z,100956.94
2023-04-25T13:45:27.580Z,100962.25
2023-04-25T13:50:29.430Z,100963.34
2023-04-25T13:55:31.374Z,100959.50
2023-04-25T14:00:33.175Z,100955.13
2023-04-25T14:05:39.552Z,100965.59
2023-04-25T14:10:41.478Z,100967.47
2023-04-25T14:15:43.391Z,100970.28
2023-04-25T14:20:45.197Z,100959.78
2023-04-25T14:25:46.991Z,100962.94
2023-04-25T14:30:48.801Z,100960.78
2023-04-25T14:35:50.733Z,100961.06
2023-04-25T14:40:53.140Z,100975.31
2023-04-25T14:45:58.184Z,100964.75
2023-04-25T14:51:01.312Z,100973.59
2023-04-25T14:56:03.077Z,100969.25
2023-04-25T15:01:04.957Z,100975.69
2023-04-25T15:06:07.583Z,100981.16
2023-04-25T15:11:09.470Z,100983.72
2023-04-25T15:16:12.679Z,100984.44
2023-04-25T15:21:14.992Z,100984.44
2023-04-25T15:26:17.180Z,100983.53
2023-04-25T15:31:19.102Z,100984.38
2023-04-25T15:36:21.924Z,100992.28
2023-04-25T15:41:24.465Z,100995.09
2023-04-25T15:46:27.068Z,101012.69
2023-04-25T15:51:28.931Z,101001.25
2023-04-25T15:56:31.015Z,101008.25
2023-04-25T16:01:33.477Z,101000.06
2023-04-25T16:06:35.562Z,101010.25
2023-04-25T16:11:37.387Z,101012.84
2023-04-25T16:16:39.307Z,101011.25
2023-04-25T16:21:42.338Z,101019.03
2023-04-25T16:26:44.717Z,101016.59
2023-04-25T16:31:47.753Z,101015.63
2023-04-25T16:36:49.937Z,101020.03
2023-04-25T16:41:52.282Z,101015.94
2023-04-25T16:46:54.078Z,101022.06
2023-04-25T16:51:56.223Z,101029.31
2023-04-25T16:56:58.475Z,101029.25
2023-04-25T17:02:00.388Z,101017.59
2023-04-25T17:07:02.474Z,101020.81
2023-04-25T17:12:04.866Z,101031.41
2023-04-25T17:17:07.224Z,101043.00
2023-04-25T17:22:09.423Z,101041.38
2023-04-25T17:27:11.504Z,101046.00
2023-04-25T17:32:15.071Z,101051.44
2023-04-25T17:37:19.148Z,101055.84
2023-04-25T17:42:20.942Z,101056.53
2023-04-25T17:47:23.633Z,101055.69
2023-04-25T17:52:26.108Z,101053.97
2023-04-25T17:57:28.009Z,101061.16
2023-04-25T18:02:29.961Z,101065.53
2023-04-25T18:07:31.822Z,101065.69
2023-04-25T18:12:34.738Z,101072.72
2023-04-25T18:17:43.147Z,101086.94
2023-04-25T18:22:48.076Z,101093.06
2023-04-25T18:27:51.207Z,101095.84
2023-04-25T18:32:53.241Z,101105.56
2023-04-25T18:37:55.103Z,101112.59
2023-04-25T18:42:56.990Z,101113.59
2023-04-25T18:48:01.802Z,101114.50
2023-04-25T18:53:04.302Z,101123.16
2023-04-25T18:58:07.949Z,101139.19
2023-04-25T19:03:10.034Z,101144.50
2023-04-25T19:08:11.986Z,101150.66
2023-04-25T19:13:14.111Z,101145.34
2023-04-25T19:18:16.012Z,101148.22
2023-04-25T19:23:17.871Z,101148.91
2023-04-25T19:28:19.801Z,101158.84
2023-04-25T19:33:21.908Z,101167.56
2023-04-25T19:38:23.742Z,101171.03
2023-04-25T19:43:25.512Z,101178.16
2023-04-25T19:48:27.637Z,101183.59
2023-04-25T19:53:29.432Z,101190.81
2023-04-25T19:58:31.775Z,101196.94
2023-04-25T20:03:33.665Z,101192.63
2023-04-25T20:08:36.657Z,101201.56
2023-04-25T20:13:38.525Z,101206.88
2023-04-25T20:18:40.455Z,101207.72
2023-04-25T20:23:44.163Z,101219.28
2023-04-25T20:28:46.516Z,101220.22
2023-04-25T20:33:48.355Z,101225.38
2023-04-25T20:38:50.352Z,101226.28
2023-04-25T20:43:53.593Z,101229.22
2023-04-25T20:48:55.379Z,101225.63
2023-04-25T20:53:57.659Z,101229.75
2023-04-25T20:58:59.516Z,101229.84
2023-04-25T21:04:01.881Z,101224.75
2023-04-25T21:09:04.985Z,101226.28
2023-04-25T21:14:07.654Z,101230.53
2023-04-25T21:19:09.770Z,101226.41
2023-04-25T21:24:14.406Z,101227.13
2023-04-25T21:29:16.194Z,101236.91
2023-04-25T21:34:18.365Z,101239.56
2023-04-25T21:39:20.193Z,101239.56
2023-04-25T21:44:22.021Z,101235.16
2023-04-25T21:49:29.562Z,101239.44
2023-04-25T21:54:32.026Z,101245.81
2023-04-25T21:59:36.160Z,101241.22
2023-04-25T22:04:38.140Z,101254.72
2023-04-25T22:09:51.295Z,101261.75
2023-04-25T22:14:57.632Z,101262.84
2023-04-25T22:19:59.752Z,101268.06
2023-04-25T22:25:01.831Z,101275.09
2023-04-25T22:30:04.077Z,101272.59
2023-04-25T22:35:07.168Z,101279.47
2023-04-25T22:40:09.474Z,101284.88
2023-04-25T22:45:12.481Z,101282.28
2023-04-25T22:50:17.163Z,101300.06
2023-04-25T22:55:19.099Z,101284.94
2023-04-25T23:00:21.973Z,101297.41
2023-04-25T23:05:24.884Z,101293.88
2023-04-25T23:10:28.667Z,101301.88
2023-04-25T23:15:33.535Z,101299.19
2023-04-25T23:20:35.323Z,101299.28
2023-04-25T23:25:40.527Z,101301.78
2023-04-25T23:30:42.346Z,101304.53
2023-04-25T23:35:44.257Z,101307.19
2023-04-25T23:40:46.247Z,101307.38
2023-04-25T23:45:48.061Z,101312.63
2023-04-25T23:50:49.875Z,101307.31
2023-04-25T23:55:51.645Z,101295.75
